Overview Statistics Trail Chart Weather Telemetry Raw packets
 

This is the latest recevied telemetry packets stored in our database for station/object DG7RJ-11. If no packets are shown the sender has not sent any telemetry packets the latest 10 day(s).

Telemetry packets is used to share measurements like repeteater parameters, battery voltage, radiation readings (or any other measurements).

<< 1 2 3 4 >>
Time Press* Temp.in* Hum* QNH* Temp.out*
1788613998 969.8 hPa 24.2 C deg 58.4 % 1023.2 hPa 27.7 C deg
1788612184 970 hPa 24.1 C deg 60.8 % 1023.3 hPa 27.9 C deg
1788610370 970 hPa 24.1 C deg 62.3 % 1023.4 hPa 27.1 C deg
1788608556 970.1 hPa 23.6 C deg 63.7 % 1023.5 hPa 25.9 C deg
1788606740 970 hPa 22.5 C deg 68.5 % 1023.6 hPa 24.4 C deg
1788604926 969.8 hPa 21.5 C deg 71.6 % 1023.6 hPa 22.9 C deg
1788603109 969.8 hPa 20.1 C deg 78.5 % 1023.9 hPa 21.4 C deg
1788601296 970 hPa 19.5 C deg 82 % 1024.2 hPa 20.2 C deg
1788597663 969.7 hPa 17.7 C deg 85.3 % 1024.2 hPa 19.1 C deg
1788595850 969.5 hPa 17.2 C deg 84.1 % 1024.1 hPa 18.9 C deg
1788592218 969.5 hPa 17 C deg 81 % 1024.1 hPa 19 C deg
1788590402 969 hPa 17 C deg 79.8 % 1023.6 hPa 19.1 C deg
1788588589 968.7 hPa 16.8 C deg 78.5 % 1023.3 hPa 19.2 C deg
1788586775 968.4 hPa 16.8 C deg 75.3 % 1023 hPa 19.6 C deg
1788584958 968.5 hPa 17 C deg 69.4 % 1023.1 hPa 20.1 C deg
1788583142 967.9 hPa 18.5 C deg 61.2 % 1022.2 hPa 20.4 C deg
1788581329 967.3 hPa 18.9 C deg 60.1 % 1021.4 hPa 20.7 C deg
1788579513 966.7 hPa 19 C deg 59.7 % 1020.7 hPa 20.9 C deg
1788577697 966.2 hPa 19.4 C deg 60.4 % 1020.2 hPa 21.2 C deg
1788575886 965.5 hPa 19.7 C deg 63.1 % 1019.4 hPa 21.6 C deg
1788574066 965.2 hPa 20.6 C deg 65.9 % 1018.9 hPa 21.8 C deg
1788572253 964.4 hPa 21 C deg 64 % 1018 hPa 22.1 C deg
1788570440 964.2 hPa 21.3 C deg 63 % 1017.7 hPa 22.2 C deg
1788568622 964 hPa 21.2 C deg 62.2 % 1017.5 hPa 22.5 C deg
1788566806 964 hPa 21.4 C deg 61.1 % 1017.5 hPa 22.8 C deg
*Used Equation Coefficients:
Press: 0, 1, 0
Temp.in: 0, 1, 0
Hum: 0, 1, 0
QNH: 0, 1, 0
Temp.out: 0, 1, 0

  • The parameter names for the analog channels will be Value1, Value2, Value3 (up to Value5) if station has not sent a PARAM-packet that specifies the parameter names for each analog channel.
  • Each analog value is a decimal number between 000 and 255 (according to APRS specifications). The receiver use the telemetry equation coefficientsto to restore the original sensor values. If no EQNS-packet with equation coefficients is sent we will show the values as is (this corresponds to the equation coefficients a=0, b=1 and c=0).
    The sent equation coefficients is used in the equation: a * value2 + b * value + c.
  • The units for the analog values will not be shown if station has not sent a UNIT-packet specifying what unit's to use.
  • The parameter names for the digital bits will be Bit1, Bit2, Bit3 (up to Bit8) if station has not sent a PARAM-packet that specifies the parameter names for each digital bit.
  • All bit labels will be named "On" if station has not sent a UNIT-packet that specifies the label of each bit.
  • A bit is considered to be On when the bit is 1 if station has not sent a BITS-packet that specifies another "Bit sense" (a BITS-packet specify the state of the bits that match the BIT labels)